This is the latest recevied weather packets stored in our database for station/object HA3KE-10. If no packets are shown the sender has not sent any weather packets the latest 10 day(s).
| Time | Temp. | Humidity | Pressure | Rain* | Wind** | Luminosity | Snow |
|---|---|---|---|---|---|---|---|
| 1777984489 | 28.89° C | 21% | 1013.3 hPa | - | - | - | - |
| 1777983589 | 28.89° C | 22% | 1013.5 hPa | - | - | - | - |
| 1777981789 | 28.33° C | 25% | 1013.7 hPa | - | - | - | - |
| 1777980888 | 28.33° C | 23% | 1013.8 hPa | - | - | - | - |
| 1777978188 | 26.67° C | 28% | 1014.1 hPa | - | - | - | - |
| 1777977290 | 26.11° C | 28% | 1014.2 hPa | - | - | - | - |
| 1777976390 | 25.56° C | 29% | 1014.3 hPa | - | - | - | - |
| 1777975490 | 25° C | 29% | 1014.6 hPa | - | - | - | - |
| 1777974590 | 25° C | 31% | 1014.6 hPa | - | - | - | - |
| 1777973690 | 24.44° C | 31% | 1014.6 hPa | - | - | - | - |
| 1777972790 | 24.44° C | 33% | 1014.7 hPa | - | - | - | - |
| 1777971890 | 23.33° C | 34% | 1014.9 hPa | - | - | - | - |
| 1777970089 | 22.22° C | 36% | 1015 hPa | - | - | - | - |
| 1777969189 | 21.11° C | 37% | 1015.1 hPa | - | - | - | - |
| 1777968290 | 21.11° C | 38% | 1015.2 hPa | - | - | - | - |
| 1777967389 | 20.56° C | 39% | 1015.3 hPa | - | - | - | - |
| 1777966489 | 20.56° C | 40% | 1015.2 hPa | - | - | - | - |
| 1777965589 | 20° C | 40% | 1015.3 hPa | - | - | - | - |
| 1777964689 | 18.89° C | 41% | 1015.4 hPa | - | - | - | - |
| 1777963788 | 18.89° C | 40% | 1015.4 hPa | - | - | - | - |
| 1777962888 | 18.33° C | 40% | 1015.3 hPa | - | - | - | - |
| 1777961988 | 17.78° C | 40% | 1015.3 hPa | - | - | - | - |
| 1777961088 | 17.22° C | 40% | 1015.2 hPa | - | - | - | - |
| 1777960188 | 17.22° C | 40% | 1015.2 hPa | - | - | - | - |
| 1777959288 | 17.22° C | 39% | 1015.2 hPa | - | - | - | - |
* Rain since midnight (hover to see other rain measurements)
** Current wind speed in m/s (hover to see current wind gust speed)